Time;durP1;ratioP1;P1;durP2;ratioP2;P2;SDS_P1;SDS_P2;PMS_P1;PMS_P2;Temp;Humidity;BMP_temperature;BMP_pressure;BME280_temperature;BME280_humidity;BME280_pressure;Samples;Min_cycle;Max_cycle;Signal;HPM_P1;HPM_P2
2024/01/31 00:01:53;;;;;;;13.13;7.43;;;10.20;99.90;;;;;;10062718;28;20030;-62
2024/01/31 00:06:51;;;;;;;12.63;6.65;;;10.20;99.90;;;;;;10061692;28;20029;-62
2024/01/31 00:11:42;;;;;;;11.73;7.22;;;10.30;99.90;;;;;;10061873;28;20041;-63
2024/01/31 00:16:33;;;;;;;13.43;7.20;;;10.20;99.90;;;;;;10061433;28;20158;-63
2024/01/31 00:21:24;;;;;;;15.07;7.68;;;10.20;99.90;;;;;;10060005;28;20060;-63
2024/01/31 00:26:14;;;;;;;10.70;6.55;;;10.20;99.90;;;;;;10060871;28;20021;-62
2024/01/31 00:31:05;;;;;;;13.80;7.05;;;10.20;99.90;;;;;;10060457;28;20538;-62
2024/01/31 00:35:55;;;;;;;11.25;6.70;;;10.20;99.90;;;;;;10060441;28;20037;-62
2024/01/31 00:40:46;;;;;;;10.85;6.90;;;10.20;99.90;;;;;;10060723;28;20057;-63
2024/01/31 00:45:37;;;;;;;12.85;6.78;;;10.20;99.90;;;;;;10060217;28;20522;-62
2024/01/31 00:50:28;;;;;;;10.38;7.38;;;10.20;99.90;;;;;;10048892;28;20692;-64
2024/01/31 00:55:18;;;;;;;13.05;7.07;;;10.20;99.90;;;;;;10055163;28;20580;-62
2024/01/31 01:00:11;;;;;;;13.93;6.82;;;10.20;99.90;;;;;;10058500;28;20112;-64
2024/01/31 01:05:03;;;;;;;13.48;6.82;;;10.30;99.90;;;;;;10058045;28;20047;-62
2024/01/31 01:09:53;;;;;;;12.95;6.20;;;10.20;99.90;;;;;;10057933;28;20097;-62
2024/01/31 01:14:44;;;;;;;13.35;7.45;;;10.20;99.90;;;;;;10059088;28;20133;-62
2024/01/31 01:19:34;;;;;;;10.32;6.82;;;10.20;99.90;;;;;;10059239;28;20026;-63
2024/01/31 01:24:25;;;;;;;13.25;7.35;;;10.20;99.90;;;;;;10058963;28;20072;-65
2024/01/31 01:29:16;;;;;;;10.25;6.75;;;10.20;99.90;;;;;;10062310;28;20148;-62
2024/01/31 01:34:06;;;;;;;14.48;7.80;;;10.20;99.90;;;;;;10058658;28;20450;-63
2024/01/31 01:38:57;;;;;;;12.05;7.30;;;10.20;99.90;;;;;;10058243;28;20025;-64
2024/01/31 01:43:48;;;;;;;11.35;7.22;;;10.20;99.90;;;;;;10058705;28;20514;-61
2024/01/31 01:48:39;;;;;;;11.13;7.05;;;10.20;99.90;;;;;;10056601;28;20014;-62
2024/01/31 01:53:33;;;;;;;14.50;8.25;;;10.20;99.90;;;;;;10053383;28;20136;-62
2024/01/31 01:58:24;;;;;;;13.27;7.13;;;10.20;99.90;;;;;;10057764;28;20506;-64
2024/01/31 02:03:17;;;;;;;11.98;6.50;;;10.10;99.90;;;;;;10055843;28;20029;-64
2024/01/31 02:08:08;;;;;;;11.55;7.07;;;10.20;99.90;;;;;;10057044;28;20693;-62
2024/01/31 02:12:59;;;;;;;13.55;6.97;;;10.20;99.90;;;;;;10055852;28;20017;-61
2024/01/31 02:17:50;;;;;;;10.77;6.47;;;10.20;99.90;;;;;;10054638;28;20491;-62
2024/01/31 02:22:42;;;;;;;12.80;6.55;;;10.20;99.90;;;;;;10055893;28;20037;-62
2024/01/31 02:27:33;;;;;;;13.25;6.50;;;10.10;99.90;;;;;;10056385;28;20063;-61
2024/01/31 02:32:23;;;;;;;12.57;6.68;;;10.20;99.90;;;;;;10056718;28;20218;-62
2024/01/31 02:37:14;;;;;;;10.52;6.78;;;10.20;99.90;;;;;;10055926;28;20041;-61
2024/01/31 02:42:05;;;;;;;10.13;6.85;;;10.10;99.90;;;;;;10056287;28;20052;-62
2024/01/31 02:46:55;;;;;;;11.25;6.13;;;10.20;99.90;;;;;;10055978;28;20049;-61
2024/01/31 02:51:46;;;;;;;14.18;7.15;;;10.20;99.90;;;;;;10056212;28;20029;-62
2024/01/31 02:56:37;;;;;;;11.15;7.25;;;10.10;99.90;;;;;;10055654;28;20105;-63
2024/01/31 03:01:28;;;;;;;13.35;7.32;;;10.10;99.90;;;;;;10056122;28;20041;-68
2024/01/31 03:06:18;;;;;;;11.77;7.63;;;10.10;99.90;;;;;;10055144;28;20393;-67
2024/01/31 03:11:09;;;;;;;15.48;6.82;;;10.10;99.90;;;;;;10056089;28;20387;-68
2024/01/31 03:15:59;;;;;;;13.15;7.25;;;10.10;99.90;;;;;;10055233;28;20037;-69
2024/01/31 03:20:54;;;;;;;14.13;6.95;;;10.10;99.90;;;;;;10055605;28;20029;-65
2024/01/31 03:25:45;;;;;;;9.48;6.65;;;10.10;99.90;;;;;;10055075;28;20077;-68
2024/01/31 03:30:35;;;;;;;11.52;6.75;;;10.10;99.90;;;;;;10053289;28;20037;-65
2024/01/31 03:35:26;;;;;;;8.75;6.43;;;10.10;99.90;;;;;;10052790;28;20124;-66
2024/01/31 03:40:17;;;;;;;10.00;6.50;;;10.10;99.90;;;;;;10054476;28;20029;-62
2024/01/31 03:45:08;;;;;;;12.73;7.00;;;10.10;99.90;;;;;;10053996;28;20034;-66
2024/01/31 03:49:59;;;;;;;11.52;6.97;;;10.10;99.90;;;;;;10052250;28;20025;-67
2024/01/31 03:54:49;;;;;;;12.15;7.80;;;10.10;99.90;;;;;;10054125;28;20400;-68
2024/01/31 03:59:40;;;;;;;12.65;8.02;;;10.00;99.90;;;;;;10054699;28;20598;-64
2024/01/31 04:04:31;;;;;;;12.13;7.80;;;10.10;99.90;;;;;;10054783;28;20021;-62
2024/01/31 04:09:22;;;;;;;12.27;7.40;;;10.10;99.90;;;;;;10053882;28;20029;-62
2024/01/31 04:14:13;;;;;;;11.98;7.88;;;10.10;99.90;;;;;;10054226;28;20061;-61
2024/01/31 04:19:03;;;;;;;11.80;7.18;;;10.00;99.90;;;;;;10054320;28;20041;-62
2024/01/31 04:23:54;;;;;;;14.65;7.20;;;10.00;99.90;;;;;;10053977;28;20447;-62
2024/01/31 04:28:45;;;;;;;11.50;7.80;;;10.00;99.90;;;;;;10058646;28;20632;-63
2024/01/31 04:33:35;;;;;;;9.40;7.00;;;10.00;99.90;;;;;;10061172;28;20049;-62
2024/01/31 04:38:29;;;;;;;12.05;7.72;;;9.90;99.90;;;;;;10061359;28;20108;-63
2024/01/31 04:43:19;;;;;;;14.57;8.20;;;9.80;99.90;;;;;;10057109;28;20025;-62
2024/01/31 04:48:10;;;;;;;14.02;7.90;;;9.80;99.90;;;;;;10059949;28;20025;-61
2024/01/31 04:53:01;;;;;;;11.85;7.88;;;9.80;99.90;;;;;;10060927;28;20017;-62
2024/01/31 04:57:51;;;;;;;12.18;7.75;;;9.80;99.90;;;;;;10059723;28;20454;-62
2024/01/31 05:02:42;;;;;;;13.90;7.75;;;10.00;99.90;;;;;;10070809;28;20048;-62
2024/01/31 05:07:32;;;;;;;12.60;7.32;;;9.90;99.90;;;;;;10061230;28;20376;-62
2024/01/31 05:12:23;;;;;;;12.20;7.32;;;10.00;99.90;;;;;;10065389;28;20112;-68
2024/01/31 05:17:16;;;;;;;12.13;8.48;;;10.00;99.90;;;;;;10059650;28;20045;-64
2024/01/31 05:22:07;;;;;;;10.88;7.22;;;10.00;99.90;;;;;;10058313;28;20048;-62
2024/01/31 05:27:03;;;;;;;9.63;6.57;;;10.00;99.90;;;;;;10057485;28;20124;-61
2024/01/31 05:31:53;;;;;;;;;;;10.00;99.90;;;;;;10060366;28;20112;-61
2024/01/31 05:36:44;;;;;;;16.75;7.22;;;10.00;99.90;;;;;;10057698;28;20019;-62
2024/01/31 05:41:35;;;;;;;13.90;7.78;;;9.90;99.90;;;;;;10058840;28;20137;-63
2024/01/31 05:46:25;;;;;;;12.82;8.00;;;9.90;99.90;;;;;;10058443;28;20021;-62
2024/01/31 05:51:16;;;;;;;13.52;8.30;;;10.00;99.90;;;;;;10058663;28;20188;-62
2024/01/31 05:56:07;;;;;;;13.25;6.78;;;9.90;99.90;;;;;;10058788;28;20434;-61
2024/01/31 06:00:57;;;;;;;11.82;7.55;;;10.00;99.90;;;;;;10058054;28;20025;-62
2024/01/31 06:05:51;;;;;;;13.57;7.90;;;10.00;99.90;;;;;;10057239;28;20123;-64
2024/01/31 06:10:42;;;;;;;13.07;7.65;;;10.00;99.90;;;;;;10057627;28;20031;-62
2024/01/31 06:15:33;;;;;;;14.23;8.55;;;10.00;99.90;;;;;;10055257;28;20029;-61
2024/01/31 06:20:23;;;;;;;11.05;7.47;;;10.00;99.90;;;;;;10047290;28;20634;-64
2024/01/31 06:25:14;;;;;;;13.88;8.82;;;10.00;99.90;;;;;;10078696;28;20062;-62
2024/01/31 06:30:05;;;;;;;14.05;7.85;;;10.10;99.90;;;;;;10055456;28;20029;-61
2024/01/31 06:34:56;;;;;;;11.60;7.50;;;10.10;99.90;;;;;;10056236;28;20056;-62
2024/01/31 06:39:46;;;;;;;15.50;8.27;;;10.00;99.90;;;;;;10056688;28;20024;-63
2024/01/31 06:44:37;;;;;;;15.82;8.20;;;10.00;99.90;;;;;;10056025;28;20034;-63
2024/01/31 06:49:28;;;;;;;15.90;8.05;;;10.10;99.90;;;;;;10048578;28;20039;-62
2024/01/31 06:54:19;;;;;;;11.00;7.07;;;10.10;99.90;;;;;;10051648;28;20045;-64
2024/01/31 06:59:10;;;;;;;17.15;8.07;;;10.10;99.90;;;;;;10049707;28;20021;-66
2024/01/31 07:04:04;;;;;;;14.25;8.98;;;10.10;99.90;;;;;;10052939;28;20033;-66
2024/01/31 07:08:54;;;;;;;17.15;9.20;;;10.10;99.90;;;;;;10055108;28;20534;-64
2024/01/31 07:13:45;;;;;;;11.60;7.63;;;10.10;99.90;;;;;;10043083;28;20041;-62
2024/01/31 07:18:39;;;;;;;12.18;7.65;;;10.10;99.90;;;;;;10059241;28;20025;-62
2024/01/31 07:23:30;;;;;;;15.38;8.55;;;10.00;99.90;;;;;;10044797;28;20105;-64
2024/01/31 07:28:21;;;;;;;13.50;8.90;;;10.10;99.90;;;;;;10055194;28;20033;-63
2024/01/31 07:33:11;;;;;;;17.58;8.90;;;10.10;99.90;;;;;;10051238;28;20045;-63
2024/01/31 07:38:03;;;;;;;16.60;8.02;;;10.10;99.90;;;;;;10054400;28;20018;-64
2024/01/31 07:42:53;;;;;;;12.48;8.77;;;10.10;99.90;;;;;;10043123;28;20022;-62
2024/01/31 07:47:44;;;;;;;18.35;9.65;;;10.10;99.90;;;;;;10039102;28;20025;-64
2024/01/31 07:52:35;;;;;;;15.10;9.63;;;10.10;99.90;;;;;;10049950;28;20033;-62
2024/01/31 07:57:26;;;;;;;16.92;9.45;;;10.10;99.90;;;;;;10048879;28;20076;-63
2024/01/31 08:02:16;;;;;;;14.23;9.20;;;10.10;99.90;;;;;;10041659;28;20071;-62
2024/01/31 08:07:07;;;;;;;14.27;8.25;;;10.10;99.90;;;;;;10039495;28;20022;-62
2024/01/31 08:11:57;;;;;;;16.05;8.65;;;10.10;99.90;;;;;;10044643;28;20091;-62
2024/01/31 08:16:51;;;;;;;16.23;8.57;;;10.10;99.90;;;;;;10043691;28;20116;-63
2024/01/31 08:21:45;;;;;;;20.70;9.40;;;10.10;99.90;;;;;;10050953;28;20531;-66
2024/01/31 08:26:35;;;;;;;14.85;9.07;;;10.10;99.90;;;;;;10055215;28;20256;-66
2024/01/31 08:31:26;;;;;;;16.83;8.88;;;10.10;99.90;;;;;;10048502;28;20104;-62
2024/01/31 08:36:16;;;;;;;19.77;9.63;;;10.10;99.90;;;;;;10041812;28;20080;-66
2024/01/31 08:41:07;;;;;;;14.48;8.10;;;10.10;99.90;;;;;;10061853;28;20029;-62
2024/01/31 08:45:58;;;;;;;14.80;8.98;;;10.20;99.90;;;;;;10061047;28;20037;-62
2024/01/31 08:50:48;;;;;;;17.90;9.75;;;10.20;99.90;;;;;;10061478;28;20490;-62
2024/01/31 08:55:42;;;;;;;17.75;9.20;;;10.20;99.90;;;;;;10053474;28;20041;-61
2024/01/31 09:00:33;;;;;;;18.75;9.05;;;10.30;99.90;;;;;;10048549;28;20479;-62
2024/01/31 09:05:23;;;;;;;12.57;8.32;;;10.30;99.90;;;;;;10049484;28;20034;-62
2024/01/31 09:10:14;;;;;;;15.85;9.23;;;10.40;99.90;;;;;;10048042;28;20017;-63
2024/01/31 09:15:05;;;;;;;16.88;9.45;;;10.40;99.90;;;;;;10055947;28;20038;-62
2024/01/31 09:19:56;;;;;;;18.40;9.35;;;10.50;99.90;;;;;;10049352;28;20034;-62
2024/01/31 09:24:46;;;;;;;18.15;10.10;;;10.50;99.90;;;;;;10046339;28;20054;-62
2024/01/31 09:29:37;;;;;;;19.77;9.93;;;10.50;99.90;;;;;;10034652;28;20031;-62
2024/01/31 09:34:27;;;;;;;13.43;7.53;;;10.60;99.90;;;;;;10055063;28;20098;-61
2024/01/31 09:39:18;;;;;;;13.05;7.50;;;10.60;99.90;;;;;;10048951;28;20116;-62
2024/01/31 09:44:09;;;;;;;14.73;7.50;;;10.60;99.90;;;;;;10040229;28;20221;-62
2024/01/31 09:49:00;;;;;;;11.07;7.22;;;10.70;99.90;;;;;;10058294;28;20029;-63
2024/01/31 09:54:00;;;;;;;14.77;7.88;;;10.70;99.90;;;;;;10057469;28;20045;-63
2024/01/31 09:58:51;;;;;;;13.88;7.28;;;10.70;99.90;;;;;;10055115;28;20026;-62
2024/01/31 10:03:41;;;;;;;11.38;6.63;;;10.70;99.90;;;;;;10052122;28;20665;-62
2024/01/31 10:08:32;;;;;;;9.77;6.60;;;10.70;99.90;;;;;;10046748;28;20164;-62
2024/01/31 10:13:23;;;;;;;11.98;5.97;;;10.70;99.90;;;;;;10043212;28;20120;-62
2024/01/31 10:18:18;;;;;;;9.85;6.18;;;10.80;99.90;;;;;;10041676;28;20045;-64
2024/01/31 10:23:16;;;;;;;13.38;7.05;;;10.70;99.90;;;;;;10046130;28;20799;-62
2024/01/31 10:28:08;;;;;;;12.23;6.13;;;10.70;99.90;;;;;;10045141;28;20029;-61
2024/01/31 10:33:04;;;;;;;9.35;6.30;;;10.70;99.90;;;;;;10062825;28;20083;-62
2024/01/31 10:37:54;;;;;;;12.15;6.45;;;10.70;99.90;;;;;;10042429;28;20207;-62
2024/01/31 10:42:47;;;;;;;8.90;6.78;;;10.70;99.90;;;;;;10051993;28;20041;-61
2024/01/31 10:47:38;;;;;;;10.63;6.32;;;10.70;99.90;;;;;;10043508;28;20487;-63
2024/01/31 10:52:32;;;;;;;40.20;23.55;;;10.70;99.90;;;;;;10038296;28;20025;-62
2024/01/31 10:57:24;;;;;;;23.48;13.15;;;10.70;99.90;;;;;;10035984;28;20034;-61
2024/01/31 11:02:16;;;;;;;26.35;12.77;;;10.80;99.90;;;;;;10047156;28;20033;-60
2024/01/31 11:07:13;;;;;;;16.58;8.57;;;10.80;99.90;;;;;;10054722;28;20048;-61
2024/01/31 11:12:06;;;;;;;12.65;7.63;;;10.70;99.90;;;;;;10048806;28;20419;-62
2024/01/31 11:17:12;;;;;;;13.85;7.05;;;10.80;99.90;;;;;;10046614;28;20037;-62
2024/01/31 11:22:03;;;;;;;13.50;8.23;;;10.80;99.90;;;;;;10050411;28;20057;-62
2024/01/31 11:26:54;;;;;;;11.95;7.57;;;10.80;99.90;;;;;;10055817;28;20446;-62
2024/01/31 11:31:45;;;;;;;12.30;6.75;;;10.90;99.90;;;;;;10085964;28;20040;-61
2024/01/31 11:36:38;;;;;;;13.55;6.72;;;10.90;99.90;;;;;;10058820;28;20822;-61
2024/01/31 11:41:29;;;;;;;13.60;8.02;;;10.90;99.90;;;;;;10064002;28;20056;-61
2024/01/31 11:46:20;;;;;;;11.70;7.30;;;10.90;99.90;;;;;;10062567;28;20101;-61
2024/01/31 11:51:11;;;;;;;9.82;5.75;;;11.00;99.90;;;;;;10058707;28;20504;-62
2024/01/31 11:56:02;;;;;;;8.18;6.03;;;11.10;99.90;;;;;;10061474;28;20059;-62
2024/01/31 12:00:56;;;;;;;7.95;4.63;;;11.20;99.90;;;;;;10061628;28;20502;-61
2024/01/31 12:05:56;;;;;;;10.18;6.75;;;11.20;99.90;;;;;;10060740;28;20039;-60
2024/01/31 12:10:49;;;;;;;11.02;5.60;;;11.30;99.90;;;;;;10062578;28;20487;-61
2024/01/31 12:15:40;;;;;;;11.98;5.95;;;11.20;99.90;;;;;;10061711;28;20048;-61
2024/01/31 12:20:31;;;;;;;9.55;5.85;;;11.20;99.90;;;;;;10061710;28;20518;-61
2024/01/31 12:25:21;;;;;;;10.18;5.18;;;11.30;99.90;;;;;;10061539;28;20049;-61
2024/01/31 12:30:12;;;;;;;14.68;5.70;;;11.40;99.90;;;;;;10045820;28;20056;-60
2024/01/31 12:35:03;;;;;;;9.43;5.53;;;11.40;99.90;;;;;;10045559;28;20668;-61
2024/01/31 12:39:54;;;;;;;11.00;5.22;;;11.50;99.90;;;;;;10043049;28;20041;-61
2024/01/31 12:44:44;;;;;;;8.48;5.53;;;11.50;99.90;;;;;;10041907;28;20079;-60
2024/01/31 12:49:39;;;;;;;9.25;6.13;;;11.50;99.90;;;;;;10055479;28;20355;-64
2024/01/31 12:54:30;;;;;;;9.90;5.60;;;11.50;99.90;;;;;;10048249;28;20097;-60
2024/01/31 12:59:21;;;;;;;8.07;6.05;;;11.40;99.90;;;;;;10047781;28;20033;-60
2024/01/31 13:04:12;;;;;;;8.27;6.18;;;11.30;99.90;;;;;;10059964;28;20029;-62
2024/01/31 13:09:02;;;;;;;9.77;5.40;;;11.40;99.90;;;;;;10058914;28;20036;-61
2024/01/31 13:13:53;;;;;;;12.57;5.90;;;11.30;99.90;;;;;;10058289;28;20290;-66
2024/01/31 13:18:44;;;;;;;9.88;6.25;;;11.30;99.90;;;;;;10054553;28;20025;-63
2024/01/31 13:23:35;;;;;;;10.63;6.32;;;11.30;99.90;;;;;;10052450;28;20053;-66
2024/01/31 13:28:26;;;;;;;9.80;6.43;;;11.30;99.90;;;;;;10051040;28;20041;-68
2024/01/31 13:33:17;;;;;;;12.48;6.15;;;11.40;99.90;;;;;;10056399;28;20063;-69
2024/01/31 13:38:07;;;;;;;14.02;7.20;;;11.30;99.90;;;;;;10049792;28;20041;-67
2024/01/31 13:42:58;;;;;;;11.23;6.68;;;11.30;99.90;;;;;;10052622;28;20038;-66
2024/01/31 13:47:49;;;;;;;10.85;6.43;;;11.40;99.90;;;;;;10059013;28;20491;-63
2024/01/31 13:52:40;;;;;;;11.23;6.97;;;11.40;99.90;;;;;;10058964;28;20029;-68
2024/01/31 13:57:30;;;;;;;11.98;7.03;;;11.40;99.90;;;;;;10057054;28;20040;-67
2024/01/31 14:02:21;;;;;;;12.07;7.32;;;11.40;99.90;;;;;;10057282;28;20033;-69
2024/01/31 14:07:12;;;;;;;13.93;7.13;;;11.40;99.90;;;;;;10044150;28;20033;-64
2024/01/31 14:12:03;;;;;;;10.48;6.28;;;11.40;99.90;;;;;;10057775;28;20032;-67
2024/01/31 14:16:54;;;;;;;12.43;6.60;;;11.40;99.90;;;;;;10046514;28;20048;-67
2024/01/31 14:21:51;;;;;;;13.40;7.13;;;11.50;99.90;;;;;;10088292;28;20392;-69
2024/01/31 14:26:42;;;;;;;9.73;6.30;;;11.50;99.90;;;;;;10089584;28;20037;-67
2024/01/31 14:31:34;;;;;;;11.27;6.57;;;11.60;99.90;;;;;;10090054;28;20454;-69
2024/01/31 14:36:25;;;;;;;11.23;6.28;;;11.60;99.90;;;;;;10081201;28;20044;-67
2024/01/31 14:41:15;;;;;;;12.80;6.53;;;11.60;99.90;;;;;;10082647;28;20515;-67
2024/01/31 14:46:06;;;;;;;10.82;6.25;;;11.60;99.90;;;;;;10088639;28;20033;-64
2024/01/31 14:50:57;;;;;;;10.85;6.22;;;11.70;99.90;;;;;;10083189;28;20029;-60
2024/01/31 14:55:48;;;;;;;15.05;6.15;;;11.70;99.90;;;;;;10089315;28;20029;-65
2024/01/31 15:00:38;;;;;;;9.10;6.18;;;11.70;99.90;;;;;;10088309;28;20585;-64
2024/01/31 15:05:29;;;;;;;10.60;6.25;;;11.70;99.90;;;;;;10088679;28;20033;-62
2024/01/31 15:10:20;;;;;;;10.35;6.18;;;11.80;99.90;;;;;;10085424;28;20091;-61
2024/01/31 15:15:10;;;;;;;7.32;5.80;;;11.90;99.90;;;;;;10088230;28;20025;-61
2024/01/31 15:20:01;;;;;;;9.63;5.75;;;11.90;99.90;;;;;;10088896;28;20053;-60
2024/01/31 15:24:55;;;;;;;10.10;5.65;;;11.90;99.90;;;;;;10083842;28;20067;-63
2024/01/31 15:29:45;;;;;;;8.60;5.30;;;11.80;99.90;;;;;;10080285;28;20053;-62
2024/01/31 15:34:36;;;;;;;9.15;5.57;;;11.80;99.90;;;;;;10062303;28;20116;-63
2024/01/31 15:39:27;;;;;;;12.15;5.60;;;11.80;99.90;;;;;;10057317;28;20875;-65
2024/01/31 15:44:21;;;;;;;9.65;5.88;;;11.80;99.90;;;;;;10060980;28;20083;-61
2024/01/31 15:49:14;;;;;;;8.00;5.28;;;11.80;99.90;;;;;;10064544;28;20181;-67
2024/01/31 15:54:05;;;;;;;9.15;5.82;;;11.70;99.90;;;;;;10062061;28;20139;-64
2024/01/31 15:58:59;;;;;;;11.85;6.80;;;11.70;99.90;;;;;;10080637;28;20038;-66
2024/01/31 16:03:53;;;;;;;10.63;5.97;;;11.70;99.90;;;;;;10074846;28;20080;-70
2024/01/31 16:08:44;;;;;;;11.45;6.75;;;11.70;99.90;;;;;;10054103;28;20033;-65
2024/01/31 16:13:35;;;;;;;9.45;6.55;;;11.60;99.90;;;;;;10054402;28;20373;-63
2024/01/31 16:18:28;;;;;;;10.38;6.80;;;11.60;99.90;;;;;;10056840;28;20052;-60
2024/01/31 16:23:22;;;;;;;14.65;7.70;;;11.60;99.90;;;;;;10049963;28;20037;-61
2024/01/31 16:28:12;;;;;;;9.15;5.97;;;11.60;99.90;;;;;;10059189;28;20022;-61
2024/01/31 16:33:03;;;;;;;11.52;7.18;;;11.70;99.90;;;;;;10056165;28;20108;-62
2024/01/31 16:37:54;;;;;;;16.40;6.97;;;11.60;99.90;;;;;;10055339;28;20057;-63
2024/01/31 16:42:48;;;;;;;13.50;7.15;;;11.60;99.90;;;;;;10057996;28;20554;-62
2024/01/31 16:47:39;;;;;;;12.60;6.90;;;11.60;99.90;;;;;;10057224;28;20041;-63
2024/01/31 16:52:30;;;;;;;10.95;7.70;;;11.60;99.90;;;;;;10058623;28;20438;-63
2024/01/31 16:57:20;;;;;;;11.02;6.85;;;11.70;99.90;;;;;;10058177;28;20037;-65
2024/01/31 17:02:11;;;;;;;16.45;7.70;;;11.70;99.90;;;;;;10053101;28;20103;-63
2024/01/31 17:07:02;;;;;;;10.85;6.47;;;11.60;99.90;;;;;;10053009;28;20319;-66
2024/01/31 17:11:53;;;;;;;11.15;6.93;;;11.60;99.90;;;;;;10053325;28;20049;-63
2024/01/31 17:16:44;;;;;;;11.50;7.68;;;11.60;99.90;;;;;;10053158;28;20033;-69
2024/01/31 17:21:36;;;;;;;14.10;7.70;;;11.50;99.90;;;;;;10056958;28;20059;-62
2024/01/31 17:26:27;;;;;;;12.15;6.85;;;11.60;99.90;;;;;;10040748;28;20021;-62
2024/01/31 17:31:17;;;;;;;11.27;6.35;;;11.50;99.90;;;;;;10034008;28;20038;-66
2024/01/31 17:36:11;;;;;;;13.32;6.72;;;11.50;99.90;;;;;;10047876;28;20052;-65
2024/01/31 17:41:04;;;;;;;12.98;7.25;;;11.50;99.90;;;;;;10053799;28;20041;-66
2024/01/31 17:45:55;;;;;;;11.82;7.70;;;11.50;99.90;;;;;;10045271;28;20029;-66
2024/01/31 17:50:46;;;;;;;14.50;8.15;;;11.50;99.90;;;;;;10056330;28;20507;-64
2024/01/31 17:55:37;;;;;;;12.38;8.07;;;11.50;99.90;;;;;;10045348;28;20575;-63
2024/01/31 18:00:27;;;;;;;14.68;8.57;;;11.50;99.90;;;;;;10045745;28;20033;-68
2024/01/31 18:05:18;;;;;;;14.98;8.02;;;11.50;99.90;;;;;;10055120;28;20115;-64
2024/01/31 18:10:10;;;;;;;15.48;8.07;;;11.50;99.90;;;;;;10055764;28;20048;-70
2024/01/31 18:15:00;;;;;;;13.05;7.78;;;11.50;99.90;;;;;;10062694;28;20621;-66
2024/01/31 18:19:51;;;;;;;14.90;8.52;;;11.40;99.90;;;;;;10054933;28;20045;-66
2024/01/31 18:24:43;;;;;;;17.75;9.60;;;11.40;99.90;;;;;;10049159;28;20029;-63
2024/01/31 18:29:35;;;;;;;16.75;8.77;;;11.40;99.90;;;;;;10047451;28;20044;-70
2024/01/31 18:34:25;;;;;;;15.43;8.80;;;11.50;99.90;;;;;;10054059;28;20092;-66
2024/01/31 18:39:16;;;;;;;15.25;9.00;;;11.50;99.90;;;;;;10045091;28;20514;-69
2024/01/31 18:44:07;;;;;;;17.73;9.40;;;11.30;99.90;;;;;;10051131;28;20018;-65
2024/01/31 18:48:58;;;;;;;16.75;11.00;;;11.30;99.90;;;;;;10063063;28;20049;-72
2024/01/31 18:53:48;;;;;;;15.40;9.50;;;11.40;99.90;;;;;;10054083;28;20044;-70
2024/01/31 18:58:40;;;;;;;16.40;9.32;;;11.40;99.90;;;;;;10050728;28;20076;-68
2024/01/31 19:03:31;;;;;;;13.80;10.27;;;11.40;99.90;;;;;;10051431;28;20605;-73
2024/01/31 19:08:22;;;;;;;17.33;11.27;;;11.40;99.90;;;;;;10061189;28;20511;-62
2024/01/31 19:13:13;;;;;;;18.25;10.82;;;11.40;99.90;;;;;;10061575;28;20033;-70
2024/01/31 19:18:09;;;;;;;16.35;9.80;;;11.40;99.90;;;;;;10054049;28;20482;-66
2024/01/31 19:23:00;;;;;;;16.42;9.27;;;11.40;99.90;;;;;;10056879;28;20511;-63
2024/01/31 19:27:51;;;;;;;19.58;10.18;;;11.40;99.90;;;;;;10059185;28;20036;-65
2024/01/31 19:32:42;;;;;;;17.85;9.82;;;11.50;99.90;;;;;;10060451;28;20044;-63
2024/01/31 19:37:32;;;;;;;13.45;8.48;;;11.50;99.90;;;;;;10058486;28;20040;-63
2024/01/31 19:42:23;;;;;;;16.60;8.43;;;11.50;99.90;;;;;;10053595;28;20026;-65
2024/01/31 19:47:14;;;;;;;15.32;9.23;;;11.40;99.90;;;;;;10061208;28;20048;-65
2024/01/31 19:52:05;;;;;;;12.77;10.07;;;11.40;99.90;;;;;;10058706;28;20013;-64
2024/01/31 19:56:55;;;;;;;16.15;9.50;;;11.40;99.90;;;;;;10056590;28;20407;-66
2024/01/31 20:01:46;;;;;;;14.13;9.70;;;11.50;99.90;;;;;;10060973;28;20033;-65
2024/01/31 20:06:37;;;;;;;13.43;8.65;;;11.50;99.90;;;;;;10060123;28;20025;-66
2024/01/31 20:11:28;;;;;;;13.10;8.02;;;11.60;99.90;;;;;;10058879;28;20068;-66
2024/01/31 20:16:22;;;;;;;12.60;7.97;;;11.50;99.90;;;;;;10050807;28;20394;-71
2024/01/31 20:21:13;;;;;;;14.27;7.38;;;11.50;99.90;;;;;;10057775;28;20096;-71
2024/01/31 20:26:04;;;;;;;15.38;8.20;;;11.50;99.90;;;;;;10059123;28;20083;-69
2024/01/31 20:30:54;;;;;;;13.80;7.82;;;11.50;99.90;;;;;;10058823;28;20029;-71
2024/01/31 20:35:45;;;;;;;15.07;9.50;;;11.40;99.90;;;;;;10049301;28;20021;-73
2024/01/31 20:40:36;;;;;;;14.20;8.20;;;11.40;99.90;;;;;;10049725;28;20474;-72
2024/01/31 20:45:28;;;;;;;14.88;8.77;;;11.40;99.90;;;;;;10055718;28;20553;-71
2024/01/31 20:50:22;;;;;;;15.52;8.35;;;11.40;99.90;;;;;;10053600;28;20033;-72
2024/01/31 20:55:12;;;;;;;13.57;7.75;;;11.40;99.90;;;;;;10059155;28;20419;-70
2024/01/31 21:00:04;;;;;;;11.98;7.97;;;11.40;99.90;;;;;;10056805;28;20045;-72
2024/01/31 21:04:55;;;;;;;15.85;8.90;;;11.40;99.90;;;;;;10056414;28;20520;-71
2024/01/31 21:09:46;;;;;;;14.30;8.30;;;11.40;99.90;;;;;;10046853;28;20037;-70
2024/01/31 21:14:37;;;;;;;13.43;8.05;;;11.40;99.90;;;;;;10053112;28;20037;-70
2024/01/31 21:19:27;;;;;;;14.00;8.77;;;11.30;99.90;;;;;;10056300;28;20053;-71
2024/01/31 21:24:18;;;;;;;15.90;9.65;;;11.30;99.90;;;;;;10056907;28;20112;-72
2024/01/31 21:29:09;;;;;;;13.48;8.40;;;11.30;99.90;;;;;;10056954;28;20041;-73
2024/01/31 21:34:00;;;;;;;14.82;8.35;;;11.30;99.90;;;;;;10055651;28;20056;-71
2024/01/31 21:38:51;;;;;;;13.55;8.68;;;11.30;99.90;;;;;;10047205;28;20039;-71
2024/01/31 21:43:42;;;;;;;16.05;8.00;;;11.30;99.90;;;;;;10055285;28;20407;-73
2024/01/31 21:48:37;;;;;;;14.75;8.35;;;11.30;99.90;;;;;;10057830;28;20113;-68
2024/01/31 21:53:28;;;;;;;13.90;7.95;;;11.30;99.90;;;;;;10046428;28;20590;-71
2024/01/31 21:58:18;;;;;;;10.57;7.47;;;11.30;99.90;;;;;;10051891;28;20120;-69
2024/01/31 22:03:09;;;;;;;11.98;7.95;;;11.30;99.90;;;;;;10051431;28;20136;-70
2024/01/31 22:07:59;;;;;;;13.70;8.10;;;11.20;99.90;;;;;;10052809;28;20153;-69
2024/01/31 22:12:50;;;;;;;16.55;9.70;;;11.20;99.90;;;;;;10051240;28;20759;-68
2024/01/31 22:17:41;;;;;;;10.57;7.30;;;11.20;99.90;;;;;;10049769;28;20199;-69
2024/01/31 22:22:33;;;;;;;13.38;8.32;;;11.20;99.90;;;;;;10054797;28;20033;-68
2024/01/31 22:27:24;;;;;;;13.15;8.23;;;11.20;99.90;;;;;;10051502;28;20038;-69
2024/01/31 22:32:15;;;;;;;11.55;6.85;;;11.20;99.90;;;;;;10054961;28;20037;-70
2024/01/31 22:37:08;;;;;;;15.07;8.15;;;11.20;99.90;;;;;;10056025;28;20018;-69
2024/01/31 22:41:59;;;;;;;14.32;7.38;;;11.10;99.90;;;;;;10061633;28;20046;-69
2024/01/31 22:46:50;;;;;;;15.13;7.32;;;11.10;99.90;;;;;;10063751;28;20099;-69
2024/01/31 22:51:40;;;;;;;13.00;7.28;;;11.20;99.90;;;;;;10063879;28;20619;-69
2024/01/31 22:56:31;;;;;;;12.10;6.65;;;11.20;99.90;;;;;;10055235;28;20029;-69
2024/01/31 23:01:22;;;;;;;13.02;7.35;;;11.20;99.90;;;;;;10048247;28;20091;-69
2024/01/31 23:06:12;;;;;;;9.55;6.20;;;11.20;99.90;;;;;;10052604;28;20037;-69
2024/01/31 23:11:03;;;;;;;11.50;6.65;;;11.20;99.90;;;;;;10053253;28;20407;-69
2024/01/31 23:15:57;;;;;;;10.63;5.38;;;11.20;99.90;;;;;;10055165;28;20112;-68
2024/01/31 23:20:47;;;;;;;9.15;5.88;;;11.20;99.90;;;;;;10061772;28;20049;-68
2024/01/31 23:25:38;;;;;;;7.90;6.18;;;11.20;99.90;;;;;;10061128;28;20045;-69
2024/01/31 23:30:29;;;;;;;14.55;6.20;;;11.20;99.90;;;;;;10070234;28;20125;-69
2024/01/31 23:35:20;;;;;;;8.00;5.45;;;11.10;99.90;;;;;;10059004;28;20613;-69
2024/01/31 23:40:11;;;;;;;8.57;5.28;;;11.20;99.90;;;;;;10054205;28;20050;-68
2024/01/31 23:45:02;;;;;;;8.75;5.07;;;11.10;99.90;;;;;;10062232;28;20056;-69
2024/01/31 23:49:54;;;;;;;12.20;6.43;;;11.20;99.90;;;;;;10061519;28;20041;-70
2024/01/31 23:54:44;;;;;;;10.05;5.35;;;11.20;99.90;;;;;;10060389;28;20029;-69
2024/01/31 23:59:35;;;;;;;8.30;5.80;;;11.10;99.90;;;;;;10054029;28;20053;-69
